Select Airport:
Chesapeake Regional Airport
Last updated: 7 minutes ago
Flight conditions: MVFR
Visibility: 5.0 statute miles
Sky Conditions: Clear
Weather conditions: haze
Wind From: 280°
Wind speed: 3 knots (3.45 mph)
Temperature: 27.3°C (81.14°F)
Dew Point: 23.4°C (74.12°F)
Altimiter setting: 29.89 in-hg
WX phone: 1-757-204-4290
WX freq: 123.675 MHz
Runway 23
   Crosswind component: 2.3 knots (2.64 mph)
   Headwind component: 1.93 knots (2.22 mph)
KCPK 191235Z AUTO 28003KT 5SM HZ CLR 27/23 A2989 RMK AO2 T02730234
FOR REFERENCE USE ONLY, DATA MAY NOT BE CURRENT.
ALWAYS CHECK FOR UP TO DATE INFORMATION.